createdAt,value
2019-05-18T00:00:11.792Z,97755.65
2019-05-18T00:02:46.118Z,97740.76
2019-05-18T00:05:20.147Z,97721.92
2019-05-18T00:07:53.658Z,97728.70
2019-05-18T00:10:27.970Z,97729.50
2019-05-18T00:13:01.731Z,97733.15
2019-05-18T00:15:35.024Z,97734.94
2019-05-18T00:18:08.787Z,97734.62
2019-05-18T00:20:42.121Z,97729.27
2019-05-18T00:23:16.250Z,97725.39
2019-05-18T00:25:50.288Z,97724.45
2019-05-18T00:28:23.929Z,97731.00
2019-05-18T00:31:03.200Z,97727.27
2019-05-18T00:33:36.504Z,97730.47
2019-05-18T00:36:10.747Z,97732.92
2019-05-18T00:38:44.535Z,97735.39
2019-05-18T00:41:18.477Z,97731.67
2019-05-18T00:43:51.725Z,97727.30
2019-05-18T00:46:25.138Z,97720.98
2019-05-18T00:48:58.786Z,97724.34
2019-05-18T00:51:32.460Z,97724.56
2019-05-18T00:54:05.891Z,97718.59
2019-05-18T00:56:40.868Z,97714.63
2019-05-18T00:59:16.216Z,97711.17
2019-05-18T01:01:49.721Z,97713.86
2019-05-18T01:04:22.993Z,97705.92
2019-05-18T01:06:57.356Z,97705.92
2019-05-18T01:09:32.373Z,97706.92
2019-05-18T01:12:05.874Z,97707.22
2019-05-18T01:14:39.577Z,97699.47
2019-05-18T01:17:13.569Z,97695.34
2019-05-18T01:19:49.533Z,97694.59
2019-05-18T01:22:23.268Z,97691.81
2019-05-18T01:24:58.310Z,97680.96
2019-05-18T01:27:32.018Z,97678.66
2019-05-18T01:30:06.991Z,97673.58
2019-05-18T01:32:40.265Z,97673.70
2019-05-18T01:35:15.242Z,97668.91
2019-05-18T01:37:48.905Z,97656.09
2019-05-18T01:40:22.449Z,97653.60
2019-05-18T01:42:56.023Z,97655.56
2019-05-18T01:45:29.387Z,97654.16
2019-05-18T01:48:13.145Z,97655.15
2019-05-18T01:50:38.030Z,97642.86
2019-05-18T01:53:11.536Z,97638.60
2019-05-18T01:55:47.094Z,97628.01
2019-05-18T01:58:20.556Z,97629.64
2019-05-18T02:00:53.806Z,97621.66
2019-05-18T02:03:27.884Z,97614.24
2019-05-18T02:06:02.888Z,97610.79
2019-05-18T02:08:36.362Z,97606.08
2019-05-18T02:11:09.757Z,97595.72
2019-05-18T02:13:43.117Z,97594.03
2019-05-18T02:16:16.183Z,97587.03
2019-05-18T02:18:49.477Z,97587.38
2019-05-18T02:21:22.787Z,97588.27
2019-05-18T02:23:56.088Z,97589.11
2019-05-18T02:26:29.613Z,97584.25
2019-05-18T02:29:03.344Z,97564.45
2019-05-18T02:31:36.783Z,97566.44
2019-05-18T02:34:10.902Z,97571.04
2019-05-18T02:36:44.433Z,97561.86
2019-05-18T02:39:19.397Z,97551.67
2019-05-18T02:41:53.841Z,97556.21
2019-05-18T02:44:27.655Z,97551.10
2019-05-18T02:47:01.506Z,97549.92
2019-05-18T02:49:35.255Z,97533.46
2019-05-18T02:52:08.556Z,97525.89
2019-05-18T02:54:42.474Z,97516.34
2019-05-18T02:57:15.809Z,97522.56
2019-05-18T02:59:49.673Z,97516.72
2019-05-18T03:02:22.922Z,97514.09
2019-05-18T03:04:56.281Z,97517.80
2019-05-18T03:07:29.747Z,97517.45
2019-05-18T03:10:03.601Z,97519.32
2019-05-18T03:12:36.881Z,97527.50
2019-05-18T03:15:10.521Z,97523.13
2019-05-18T03:17:44.328Z,97521.09
2019-05-18T03:20:17.982Z,97522.44
2019-05-18T03:22:51.796Z,97526.72
2019-05-18T03:25:25.772Z,97510.77
2019-05-18T03:27:59.223Z,97508.69
2019-05-18T03:30:32.528Z,97501.20
2019-05-18T03:33:06.116Z,97499.59
2019-05-18T03:35:39.368Z,97507.24
2019-05-18T03:38:13.106Z,97504.98
2019-05-18T03:40:46.305Z,97504.02
2019-05-18T03:43:19.989Z,97495.77
2019-05-18T03:45:57.931Z,97500.61
2019-05-18T03:48:31.212Z,97495.02
2019-05-18T03:51:05.548Z,97497.28
2019-05-18T03:53:39.355Z,97497.23
2019-05-18T03:56:13.115Z,97498.07
2019-05-18T03:58:47.403Z,97504.54
2019-05-18T04:01:20.888Z,97505.69
2019-05-18T04:03:54.563Z,97506.15
2019-05-18T04:06:28.087Z,97506.03
2019-05-18T04:09:02.141Z,97524.28
2019-05-18T04:11:35.595Z,97522.97
2019-05-18T04:14:09.273Z,97532.48
2019-05-18T04:16:43.158Z,97535.42
2019-05-18T04:19:16.993Z,97553.63
2019-05-18T04:21:50.404Z,97534.72
2019-05-18T04:24:23.654Z,97524.41
2019-05-18T04:26:56.927Z,97518.34
2019-05-18T04:29:30.260Z,97506.28
2019-05-18T04:32:03.574Z,97517.63
2019-05-18T04:34:37.111Z,97520.80
2019-05-18T04:37:11.025Z,97525.08
2019-05-18T04:39:44.543Z,97534.64
2019-05-18T04:42:18.108Z,97527.86
2019-05-18T04:44:51.154Z,97523.22
2019-05-18T04:47:24.733Z,97534.69
2019-05-18T04:50:05.086Z,97523.06
2019-05-18T04:52:33.980Z,97509.73
2019-05-18T04:55:07.478Z,97502.75
2019-05-18T04:57:40.946Z,97511.28
2019-05-18T05:00:16.165Z,97521.36
2019-05-18T05:02:50.638Z,97534.45
2019-05-18T05:05:24.172Z,97527.23
2019-05-18T05:07:57.952Z,97521.31
2019-05-18T05:10:32.007Z,97520.72
2019-05-18T05:13:07.080Z,97528.30
2019-05-18T05:15:40.525Z,97528.65
2019-05-18T05:18:14.128Z,97540.47
2019-05-18T05:20:54.174Z,97528.64
2019-05-18T05:23:27.753Z,97540.46
2019-05-18T05:26:01.436Z,97528.61
2019-05-18T05:28:35.451Z,97542.66
2019-05-18T05:31:09.198Z,97547.65
2019-05-18T05:33:43.623Z,97553.95
2019-05-18T05:36:18.103Z,97562.97
2019-05-18T05:38:52.054Z,97545.66
2019-05-18T05:41:26.168Z,97543.41
2019-05-18T05:44:00.308Z,97544.15
2019-05-18T05:46:37.148Z,97538.22
2019-05-18T05:49:09.437Z,97545.19
2019-05-18T05:51:42.712Z,97550.43
2019-05-18T05:54:17.324Z,97544.66
2019-05-18T05:56:51.177Z,97549.40
2019-05-18T05:59:25.255Z,97546.66
2019-05-18T06:01:58.993Z,97544.35
2019-05-18T06:04:33.724Z,97540.55
2019-05-18T06:07:07.134Z,97547.05
2019-05-18T06:09:40.654Z,97542.09
2019-05-18T06:12:19.653Z,97547.53
2019-05-18T06:14:53.397Z,97546.59
2019-05-18T06:17:27.571Z,97549.47
2019-05-18T06:20:01.041Z,97534.53
2019-05-18T06:22:34.645Z,97533.95
2019-05-18T06:25:08.185Z,97536.88
2019-05-18T06:27:41.752Z,97527.49
2019-05-18T06:30:15.105Z,97540.66
2019-05-18T06:32:48.277Z,97539.72
2019-05-18T06:35:21.456Z,97539.97
2019-05-18T06:37:55.167Z,97547.48
2019-05-18T06:40:28.495Z,97538.20
2019-05-18T06:43:01.980Z,97537.66
2019-05-18T06:45:35.009Z,97545.45
2019-05-18T06:48:08.443Z,97537.71
2019-05-18T06:50:43.225Z,97537.70
2019-05-18T06:53:16.776Z,97541.38
2019-05-18T06:55:50.909Z,97539.34
2019-05-18T06:58:25.718Z,97545.56
2019-05-18T07:01:04.474Z,97552.94
2019-05-18T07:03:39.642Z,97547.36
2019-05-18T07:06:13.765Z,97548.59
2019-05-18T07:08:47.763Z,97547.83
2019-05-18T07:11:21.464Z,97546.80
2019-05-18T07:13:56.026Z,97560.02
2019-05-18T07:16:30.585Z,97556.89
2019-05-18T07:19:04.517Z,97556.26
2019-05-18T07:21:38.876Z,97569.51
2019-05-18T07:24:13.633Z,97559.77
2019-05-18T07:26:47.658Z,97555.63
2019-05-18T07:29:21.883Z,97566.00
2019-05-18T07:31:57.035Z,97573.53
2019-05-18T07:34:30.720Z,97567.13
2019-05-18T07:37:05.346Z,97561.23
2019-05-18T07:39:39.322Z,97557.33
2019-05-18T07:42:12.868Z,97558.72
2019-05-18T07:44:46.331Z,97562.48
2019-05-18T07:47:19.727Z,97574.48
2019-05-18T07:49:53.124Z,97564.13
2019-05-18T07:52:26.163Z,97561.33
2019-05-18T07:55:01.196Z,97558.44
2019-05-18T07:57:33.872Z,97557.86
2019-05-18T08:00:07.637Z,97547.63
2019-05-18T08:02:41.396Z,97554.13
2019-05-18T08:05:19.411Z,97565.53
2019-05-18T08:07:52.925Z,97558.19
2019-05-18T08:10:43.058Z,97562.98
2019-05-18T08:13:15.733Z,97568.89
2019-05-18T08:15:49.863Z,97565.17
2019-05-18T08:18:23.868Z,97578.03
2019-05-18T08:20:58.108Z,97586.34
2019-05-18T08:23:31.746Z,97580.19
2019-05-18T08:26:05.463Z,97572.92
2019-05-18T08:28:39.321Z,97588.28
2019-05-18T08:31:12.509Z,97574.54
2019-05-18T08:33:47.884Z,97576.75
2019-05-18T08:36:22.525Z,97570.30
2019-05-18T08:38:55.861Z,97572.47
2019-05-18T08:41:29.410Z,97570.65
2019-05-18T08:44:06.263Z,97574.18
2019-05-18T08:46:40.265Z,97587.39
2019-05-18T08:49:16.425Z,97579.49
2019-05-18T08:51:51.776Z,97577.22
2019-05-18T08:54:26.211Z,97569.78
2019-05-18T08:57:00.423Z,97597.20
2019-05-18T08:59:36.093Z,97581.45
2019-05-18T09:02:10.553Z,97573.53
2019-05-18T09:04:44.377Z,97578.90
2019-05-18T09:07:18.526Z,97587.70
2019-05-18T09:09:52.683Z,97580.34
2019-05-18T09:12:27.035Z,97588.27
2019-05-18T09:15:00.993Z,97580.44
2019-05-18T09:17:36.181Z,97586.13
2019-05-18T09:20:11.641Z,97577.64
2019-05-18T09:22:45.888Z,97581.44
2019-05-18T09:25:19.453Z,97575.63
2019-05-18T09:27:53.655Z,97581.28
2019-05-18T09:30:31.195Z,97579.05
2019-05-18T09:33:05.229Z,97601.79
2019-05-18T09:35:39.459Z,97582.30
2019-05-18T09:38:15.079Z,97593.92
2019-05-18T09:40:49.744Z,97586.63
2019-05-18T09:43:26.073Z,97577.36
2019-05-18T09:46:02.286Z,97591.13
2019-05-18T09:48:36.358Z,97593.24
2019-05-18T09:51:10.975Z,97589.77
2019-05-18T09:53:51.529Z,97595.23
2019-05-18T09:56:19.540Z,97594.23
2019-05-18T09:58:52.726Z,97587.81
2019-05-18T10:01:26.363Z,97590.48
2019-05-18T10:04:00.379Z,97595.05
2019-05-18T10:06:33.642Z,97599.87
2019-05-18T10:09:08.290Z,97594.75
2019-05-18T10:11:41.462Z,97595.44
2019-05-18T10:14:15.436Z,97592.25
2019-05-18T10:16:49.118Z,97585.55
2019-05-18T10:19:22.835Z,97599.22
2019-05-18T10:21:56.149Z,97584.73
2019-05-18T10:24:29.450Z,97586.80
2019-05-18T10:27:03.218Z,97597.50
2019-05-18T10:29:36.814Z,97592.84
2019-05-18T10:32:13.201Z,97575.78
2019-05-18T10:34:47.341Z,97575.64
2019-05-18T10:37:21.447Z,97581.64
2019-05-18T10:39:55.294Z,97582.84
2019-05-18T10:42:31.482Z,97608.01
2019-05-18T10:45:05.523Z,97573.39
2019-05-18T10:47:39.907Z,97562.02
2019-05-18T10:50:14.096Z,97551.50
2019-05-18T10:52:48.556Z,97549.03
2019-05-18T10:55:22.374Z,97552.77
2019-05-18T10:57:56.201Z,97569.23
2019-05-18T11:00:33.074Z,97574.23
2019-05-18T11:03:06.985Z,97578.06
2019-05-18T11:05:40.887Z,97593.12
2019-05-18T11:08:15.334Z,97597.53
2019-05-18T11:10:53.528Z,97593.44
2019-05-18T11:13:28.703Z,97604.64
2019-05-18T11:16:04.235Z,97597.91
2019-05-18T11:18:41.109Z,97597.11
2019-05-18T11:21:17.286Z,97618.69
2019-05-18T11:23:52.626Z,97606.52
2019-05-18T11:26:30.074Z,97612.38
2019-05-18T11:29:04.463Z,97605.66
2019-05-18T11:31:40.601Z,97594.84
2019-05-18T11:34:14.741Z,97615.05
2019-05-18T11:36:49.241Z,97611.62
2019-05-18T11:39:28.967Z,97619.70
2019-05-18T11:42:02.975Z,97618.05
2019-05-18T11:44:40.836Z,97623.48
2019-05-18T11:47:15.085Z,97621.52
2019-05-18T11:49:49.451Z,97617.39
2019-05-18T11:52:24.566Z,97617.08
2019-05-18T11:54:59.426Z,97618.71
2019-05-18T11:57:39.738Z,97626.06
2019-05-18T12:00:17.777Z,97630.49
2019-05-18T12:02:51.893Z,97618.80
2019-05-18T12:05:27.136Z,97623.20
2019-05-18T12:08:04.771Z,97615.44
2019-05-18T12:10:39.777Z,97616.95
2019-05-18T12:13:14.776Z,97621.89
2019-05-18T12:15:51.541Z,97622.11
2019-05-18T12:18:33.271Z,97627.89
2019-05-18T12:21:08.657Z,97617.23
2019-05-18T12:23:44.935Z,97620.86
2019-05-18T12:26:19.209Z,97617.22
2019-05-18T12:28:57.574Z,97611.80
2019-05-18T12:31:32.025Z,97620.20
2019-05-18T12:34:07.266Z,97619.20
2019-05-18T12:36:43.243Z,97623.49
2019-05-18T12:39:19.183Z,97621.83
2019-05-18T12:41:54.683Z,97615.25
2019-05-18T12:44:29.221Z,97623.49
2019-05-18T12:47:04.736Z,97607.19
2019-05-18T12:49:39.534Z,97607.36
2019-05-18T12:52:15.139Z,97610.64
2019-05-18T12:54:53.818Z,97606.70
2019-05-18T12:57:27.931Z,97603.42
2019-05-18T13:00:03.662Z,97601.41
2019-05-18T13:02:38.170Z,97592.46
2019-05-18T13:05:12.054Z,97589.27
2019-05-18T13:07:46.207Z,97592.36
2019-05-18T13:10:21.818Z,97595.91
2019-05-18T13:12:57.738Z,97585.91
2019-05-18T13:15:32.888Z,97565.11
2019-05-18T13:18:09.151Z,97584.20
2019-05-18T13:20:43.691Z,97586.17
2019-05-18T13:23:18.197Z,97587.72
2019-05-18T13:25:53.905Z,97591.34
2019-05-18T13:28:28.413Z,97588.36
2019-05-18T13:31:04.099Z,97582.36
2019-05-18T13:33:38.034Z,97585.55
2019-05-18T13:36:13.979Z,97590.24
2019-05-18T13:38:48.651Z,97593.97
2019-05-18T13:41:25.211Z,97590.00
2019-05-18T13:44:01.224Z,97585.51
2019-05-18T13:46:35.901Z,97583.68
2019-05-18T13:49:11.621Z,97579.52
2019-05-18T13:51:48.341Z,97570.09
2019-05-18T13:54:22.576Z,97566.62
2019-05-18T13:56:57.050Z,97559.83
2019-05-18T13:59:31.799Z,97562.80
2019-05-18T14:02:06.066Z,97562.49
2019-05-18T14:04:40.626Z,97569.82
2019-05-18T14:07:14.653Z,97562.52
2019-05-18T14:09:50.142Z,97573.62
2019-05-18T14:12:25.246Z,97569.27
2019-05-18T14:14:59.523Z,97564.34
2019-05-18T14:17:33.297Z,97565.86
2019-05-18T14:20:06.699Z,97564.34
2019-05-18T14:22:40.835Z,97558.14
2019-05-18T14:25:20.226Z,97569.45
2019-05-18T14:27:51.108Z,97568.01
2019-05-18T14:30:26.543Z,97575.27
2019-05-18T14:33:01.399Z,97583.64
2019-05-18T14:35:36.019Z,97581.19
2019-05-18T14:38:13.951Z,97576.56
2019-05-18T14:40:48.914Z,97574.89
2019-05-18T14:43:24.776Z,97577.80
2019-05-18T14:45:59.726Z,97575.56
2019-05-18T14:48:34.488Z,97572.55
2019-05-18T14:51:10.282Z,97574.02
2019-05-18T14:53:44.081Z,97574.80
2019-05-18T14:56:19.298Z,97575.61
2019-05-18T14:58:52.875Z,97575.25
2019-05-18T15:01:27.187Z,97579.80
2019-05-18T15:04:02.796Z,97578.73
2019-05-18T15:06:36.770Z,97584.08
2019-05-18T15:09:11.210Z,97572.58
2019-05-18T15:11:45.524Z,97582.06
2019-05-18T15:14:19.985Z,97584.67
2019-05-18T15:16:54.047Z,97600.89
2019-05-18T15:19:29.128Z,97604.31
2019-05-18T15:22:03.895Z,97608.61
2019-05-18T15:24:41.782Z,97609.25
2019-05-18T15:27:15.902Z,97607.02
2019-05-18T15:29:51.615Z,97601.50
2019-05-18T15:32:25.849Z,97604.54
2019-05-18T15:35:00.272Z,97610.52
2019-05-18T15:37:34.460Z,97613.57
2019-05-18T15:40:08.817Z,97613.23
2019-05-18T15:42:44.555Z,97612.73
2019-05-18T15:45:18.179Z,97610.17
2019-05-18T15:47:53.036Z,97608.08
2019-05-18T15:50:27.565Z,97614.06
2019-05-18T15:53:03.977Z,97614.66
2019-05-18T15:55:41.268Z,97619.27
2019-05-18T15:58:15.417Z,97616.37
2019-05-18T16:00:48.957Z,97615.69
2019-05-18T16:03:25.442Z,97621.16
2019-05-18T16:05:58.530Z,97622.02
2019-05-18T16:08:33.542Z,97629.30
2019-05-18T16:11:08.288Z,97621.75
2019-05-18T16:13:41.955Z,97626.38
2019-05-18T16:16:15.324Z,97625.19
2019-05-18T16:18:53.793Z,97624.06
2019-05-18T16:21:27.386Z,97633.25
2019-05-18T16:24:01.717Z,97634.25
2019-05-18T16:26:35.022Z,97642.81
2019-05-18T16:29:09.959Z,97645.25
2019-05-18T16:31:43.821Z,97652.67
2019-05-18T16:34:19.160Z,97654.06
2019-05-18T16:36:53.846Z,97660.14
2019-05-18T16:39:28.480Z,97649.97
2019-05-18T16:42:04.064Z,97652.43
2019-05-18T16:44:39.447Z,97656.86
2019-05-18T16:47:13.699Z,97655.06
2019-05-18T16:49:47.870Z,97654.05
2019-05-18T16:52:21.845Z,97654.05
2019-05-18T16:54:56.309Z,97660.98
2019-05-18T16:57:31.217Z,97659.00
2019-05-18T17:00:05.247Z,97665.58
2019-05-18T17:02:39.162Z,97660.31
2019-05-18T17:05:15.866Z,97663.42
2019-05-18T17:07:49.861Z,97663.42
2019-05-18T17:10:24.926Z,97667.20
2019-05-18T17:13:00.970Z,97678.07
2019-05-18T17:15:35.308Z,97678.55
2019-05-18T17:18:11.797Z,97680.53
2019-05-18T17:20:46.985Z,97687.61
2019-05-18T17:23:22.687Z,97684.31
2019-05-18T17:25:59.438Z,97683.00
2019-05-18T17:28:33.168Z,97686.80
2019-05-18T17:31:07.558Z,97691.37
2019-05-18T17:33:41.817Z,97688.59
2019-05-18T17:36:14.992Z,97688.91
2019-05-18T17:38:48.495Z,97695.17
2019-05-18T17:41:22.230Z,97699.42
2019-05-18T17:43:56.529Z,97707.61
2019-05-18T17:46:31.287Z,97704.67
2019-05-18T17:49:04.506Z,97708.13
2019-05-18T17:51:39.300Z,97720.63
2019-05-18T17:54:12.719Z,97723.56
2019-05-18T17:56:46.174Z,97725.34
2019-05-18T17:59:19.706Z,97718.84
2019-05-18T18:01:54.365Z,97720.08
2019-05-18T18:04:28.245Z,97723.06
2019-05-18T18:07:12.984Z,97724.83
2019-05-18T18:09:47.080Z,97726.48
2019-05-18T18:12:21.664Z,97726.64
2019-05-18T18:14:55.584Z,97720.81
2019-05-18T18:17:30.236Z,97718.14
2019-05-18T18:20:13.831Z,97716.81
2019-05-18T18:22:47.590Z,97715.14
2019-05-18T18:25:21.944Z,97720.86
2019-05-18T18:27:55.584Z,97725.00
2019-05-18T18:30:32.337Z,97733.58
2019-05-18T18:33:06.343Z,97729.36
2019-05-18T18:35:40.738Z,97730.92
2019-05-18T18:38:14.911Z,97732.89
2019-05-18T18:40:48.989Z,97732.52
2019-05-18T18:43:23.488Z,97735.47
2019-05-18T18:45:57.748Z,97732.10
2019-05-18T18:48:31.980Z,97739.77
2019-05-18T18:51:05.833Z,97747.13
2019-05-18T18:53:40.058Z,97751.58
2019-05-18T18:56:14.437Z,97756.31
2019-05-18T18:58:47.968Z,97753.95
2019-05-18T19:01:22.328Z,97758.72
2019-05-18T19:03:57.928Z,97755.42
2019-05-18T19:06:31.833Z,97760.20
2019-05-18T19:09:08.363Z,97760.30
2019-05-18T19:11:42.704Z,97762.09
2019-05-18T19:14:21.670Z,97772.59
2019-05-18T19:16:56.045Z,97776.94
2019-05-18T19:19:31.410Z,97776.32
2019-05-18T19:22:06.210Z,97777.28
2019-05-18T19:24:41.022Z,97783.20
2019-05-18T19:27:16.459Z,97781.25
2019-05-18T19:29:51.588Z,97787.67
2019-05-18T19:32:25.604Z,97793.63
2019-05-18T19:34:59.964Z,97789.54
2019-05-18T19:37:39.073Z,97793.11
2019-05-18T19:40:15.312Z,97798.00
2019-05-18T19:42:48.575Z,97801.30
2019-05-18T19:45:22.125Z,97807.14
2019-05-18T19:47:58.402Z,97804.59
2019-05-18T19:50:32.655Z,97800.30
2019-05-18T19:53:07.828Z,97798.00
2019-05-18T19:55:43.680Z,97801.89
2019-05-18T19:58:21.692Z,97800.11
2019-05-18T20:00:59.594Z,97804.19
2019-05-18T20:03:35.913Z,97806.42
2019-05-18T20:06:12.796Z,97809.88
2019-05-18T20:08:46.113Z,97815.28
2019-05-18T20:11:20.263Z,97814.01
2019-05-18T20:13:54.363Z,97809.72
2019-05-18T20:16:29.824Z,97814.25
2019-05-18T20:19:04.165Z,97816.80
2019-05-18T20:21:38.711Z,97815.20
2019-05-18T20:24:12.756Z,97816.47
2019-05-18T20:26:48.177Z,97821.19
2019-05-18T20:29:22.406Z,97818.53
2019-05-18T20:31:57.474Z,97816.62
2019-05-18T20:34:32.658Z,97820.55
2019-05-18T20:37:06.933Z,97826.04
2019-05-18T20:39:41.334Z,97823.81
2019-05-18T20:42:16.422Z,97819.20
2019-05-18T20:44:51.279Z,97825.41
2019-05-18T20:47:25.646Z,97817.59
2019-05-18T20:50:01.192Z,97816.62
2019-05-18T20:52:35.770Z,97817.15
2019-05-18T20:55:13.538Z,97813.13
2019-05-18T20:57:48.578Z,97809.91
2019-05-18T21:00:29.859Z,97820.75
2019-05-18T21:03:05.356Z,97814.72
2019-05-18T21:05:50.295Z,97815.59
2019-05-18T21:08:25.011Z,97823.35
2019-05-18T21:10:59.868Z,97817.44
2019-05-18T21:13:35.081Z,97817.91
2019-05-18T21:16:11.167Z,97821.56
2019-05-18T21:18:46.160Z,97812.66
2019-05-18T21:21:24.995Z,97814.13
2019-05-18T21:23:56.849Z,97814.50
2019-05-18T21:26:32.859Z,97811.31
2019-05-18T21:29:07.052Z,97809.23
2019-05-18T21:31:42.498Z,97803.02
2019-05-18T21:34:18.928Z,97801.42
2019-05-18T21:36:53.247Z,97793.58
2019-05-18T21:39:27.336Z,97794.30
2019-05-18T21:42:01.376Z,97797.05
2019-05-18T21:44:35.307Z,97796.00
2019-05-18T21:47:09.455Z,97796.02
2019-05-18T21:49:44.130Z,97785.89
2019-05-18T21:52:17.488Z,97788.69
2019-05-18T21:54:52.245Z,97795.16
2019-05-18T21:57:26.078Z,97794.08
2019-05-18T22:00:02.414Z,97799.74
2019-05-18T22:02:36.081Z,97796.34
2019-05-18T22:05:09.994Z,97800.84
2019-05-18T22:07:43.315Z,97801.46
2019-05-18T22:10:25.550Z,97806.84
2019-05-18T22:12:53.310Z,97802.47
2019-05-18T22:15:28.045Z,97799.63
2019-05-18T22:18:06.643Z,97799.36
2019-05-18T22:20:44.007Z,97802.66
2019-05-18T22:23:16.172Z,97809.47
2019-05-18T22:25:51.322Z,97806.45
2019-05-18T22:28:24.970Z,97805.97
2019-05-18T22:30:58.813Z,97804.25
2019-05-18T22:33:32.918Z,97800.58
2019-05-18T22:36:06.522Z,97804.91
2019-05-18T22:38:40.000Z,97807.13
2019-05-18T22:41:14.005Z,97807.64
2019-05-18T22:43:47.547Z,97805.82
2019-05-18T22:46:20.888Z,97815.34
2019-05-18T22:48:54.334Z,97807.28
2019-05-18T22:51:27.900Z,97797.23
2019-05-18T22:54:01.591Z,97800.95
2019-05-18T22:56:34.422Z,97804.70
2019-05-18T22:59:07.634Z,97800.45
2019-05-18T23:01:41.885Z,97801.98
2019-05-18T23:04:16.187Z,97795.80
2019-05-18T23:06:49.535Z,97792.31
2019-05-18T23:09:23.153Z,97784.14
2019-05-18T23:11:56.788Z,97779.89
2019-05-18T23:14:30.317Z,97778.31
2019-05-18T23:17:04.070Z,97781.81
2019-05-18T23:19:38.120Z,97778.60
2019-05-18T23:22:10.945Z,97780.66
2019-05-18T23:24:44.782Z,97777.36
2019-05-18T23:27:18.081Z,97777.09
2019-05-18T23:29:51.474Z,97769.27
2019-05-18T23:32:25.353Z,97767.68
2019-05-18T23:34:59.590Z,97765.45
2019-05-18T23:37:37.587Z,97762.20
2019-05-18T23:40:10.782Z,97760.92
2019-05-18T23:42:44.960Z,97759.41
2019-05-18T23:45:18.931Z,97755.33
2019-05-18T23:47:53.020Z,97756.80
2019-05-18T23:50:27.142Z,97758.34
2019-05-18T23:53:00.304Z,97752.59
2019-05-18T23:55:33.945Z,97753.57
2019-05-18T23:58:07.072Z,97755.80
